Terminal Aerodrome Forecast
Issued by NWS

Home | Current Version | Previous Version | Graphics & Text | Print | Product List | Glossary On
Versions: 1 2 3 4 5 6 7 8 9 10 11 12 13 14 15 16
886
FTUS43 KGRB 021720
TAFAUW
TAF
KAUW 021720Z 0218/0318 31007KT P6SM OVC018
     FM022100 30005KT P6SM OVC022
     FM030600 28004KT P6SM OVC015=

USA.gov is the U.S. government's official web portal to all federal, state and local government web resources and services.